sensor_id;sensor_type;location;lat;lon;timestamp;temperature;humidity
13970;DHT22;7057;49.984;8.404;2023-04-29T00:01:40;12.70;99.90
13970;DHT22;7057;49.984;8.404;2023-04-29T00:04:07;12.70;99.90
13970;DHT22;7057;49.984;8.404;2023-04-29T00:06:36;12.80;99.90
13970;DHT22;7057;49.984;8.404;2023-04-29T00:09:03;12.80;99.90
13970;DHT22;7057;49.984;8.404;2023-04-29T00:11:30;12.80;99.90
13970;DHT22;7057;49.984;8.404;2023-04-29T00:13:57;12.70;99.90
13970;DHT22;7057;49.984;8.404;2023-04-29T00:16:25;12.70;99.90
13970;DHT22;7057;49.984;8.404;2023-04-29T00:18:52;12.70;99.90
13970;DHT22;7057;49.984;8.404;2023-04-29T00:21:20;12.70;99.90
13970;DHT22;7057;49.984;8.404;2023-04-29T00:23:48;12.70;99.90
13970;DHT22;7057;49.984;8.404;2023-04-29T00:26:15;12.70;99.90
13970;DHT22;7057;49.984;8.404;2023-04-29T00:28:43;12.70;99.90
13970;DHT22;7057;49.984;8.404;2023-04-29T00:31:10;12.70;99.90
13970;DHT22;7057;49.984;8.404;2023-04-29T00:33:37;12.60;99.90
13970;DHT22;7057;49.984;8.404;2023-04-29T00:36:05;12.60;99.90
13970;DHT22;7057;49.984;8.404;2023-04-29T00:38:33;12.60;99.90
13970;DHT22;7057;49.984;8.404;2023-04-29T00:41:02;12.50;99.90
13970;DHT22;7057;49.984;8.404;2023-04-29T00:43:29;12.40;99.90
13970;DHT22;7057;49.984;8.404;2023-04-29T00:45:56;12.30;99.90
13970;DHT22;7057;49.984;8.404;2023-04-29T00:48:25;12.30;99.90
13970;DHT22;7057;49.984;8.404;2023-04-29T00:50:52;12.20;99.90
13970;DHT22;7057;49.984;8.404;2023-04-29T00:53:20;12.10;99.90
13970;DHT22;7057;49.984;8.404;2023-04-29T00:55:49;12.10;99.90
13970;DHT22;7057;49.984;8.404;2023-04-29T00:58:19;12.10;99.90
13970;DHT22;7057;49.984;8.404;2023-04-29T01:00:47;12.10;99.90
13970;DHT22;7057;49.984;8.404;2023-04-29T01:03:15;12.20;99.90
13970;DHT22;7057;49.984;8.404;2023-04-29T01:05:44;12.30;99.90
13970;DHT22;7057;49.984;8.404;2023-04-29T01:08:22;12.40;
13970;DHT22;7057;49.984;8.404;2023-04-29T01:11:04;12.50;99.90
13970;DHT22;7057;49.984;8.404;2023-04-29T01:13:41;12.60;99.90
13970;DHT22;7057;49.984;8.404;2023-04-29T01:16:12;12.60;99.90
13970;DHT22;7057;49.984;8.404;2023-04-29T01:18:45;12.70;99.90
13970;DHT22;7057;49.984;8.404;2023-04-29T01:21:15;12.70;99.90
13970;DHT22;7057;49.984;8.404;2023-04-29T01:23:45;12.80;99.90
13970;DHT22;7057;49.984;8.404;2023-04-29T01:26:12;12.80;99.90
13970;DHT22;7057;49.984;8.404;2023-04-29T01:28:45;12.90;99.90
13970;DHT22;7057;49.984;8.404;2023-04-29T01:31:18;12.80;99.90
13970;DHT22;7057;49.984;8.404;2023-04-29T01:33:58;12.70;99.90
13970;DHT22;7057;49.984;8.404;2023-04-29T01:36:32;12.60;99.90
13970;DHT22;7057;49.984;8.404;2023-04-29T01:39:10;12.50;99.90
13970;DHT22;7057;49.984;8.404;2023-04-29T01:41:42;12.40;99.90
13970;DHT22;7057;49.984;8.404;2023-04-29T01:44:14;12.30;99.90
13970;DHT22;7057;49.984;8.404;2023-04-29T01:46:43;12.20;99.90
13970;DHT22;7057;49.984;8.404;2023-04-29T01:49:14;12.10;99.90
13970;DHT22;7057;49.984;8.404;2023-04-29T01:51:41;12.00;99.90
13970;DHT22;7057;49.984;8.404;2023-04-29T01:54:10;12.00;99.90
13970;DHT22;7057;49.984;8.404;2023-04-29T01:56:38;11.90;99.90
13970;DHT22;7057;49.984;8.404;2023-04-29T01:59:05;12.00;99.90
13970;DHT22;7057;49.984;8.404;2023-04-29T02:01:33;11.90;99.90
13970;DHT22;7057;49.984;8.404;2023-04-29T02:04:00;11.90;99.90
13970;DHT22;7057;49.984;8.404;2023-04-29T02:06:27;11.90;99.90
13970;DHT22;7057;49.984;8.404;2023-04-29T02:08:57;11.90;99.90
13970;DHT22;7057;49.984;8.404;2023-04-29T02:11:25;11.90;99.90
13970;DHT22;7057;49.984;8.404;2023-04-29T02:13:52;11.90;99.90
13970;DHT22;7057;49.984;8.404;2023-04-29T02:16:20;12.00;99.90
13970;DHT22;7057;49.984;8.404;2023-04-29T02:18:47;12.00;99.90
13970;DHT22;7057;49.984;8.404;2023-04-29T02:21:14;12.10;99.90
13970;DHT22;7057;49.984;8.404;2023-04-29T02:23:42;12.20;99.90
13970;DHT22;7057;49.984;8.404;2023-04-29T02:26:09;12.30;99.90
13970;DHT22;7057;49.984;8.404;2023-04-29T02:28:38;12.30;99.90
13970;DHT22;7057;49.984;8.404;2023-04-29T02:31:05;12.40;99.90
13970;DHT22;7057;49.984;8.404;2023-04-29T02:33:32;12.40;99.90
13970;DHT22;7057;49.984;8.404;2023-04-29T02:35:59;12.40;99.90
13970;DHT22;7057;49.984;8.404;2023-04-29T02:38:27;12.50;99.90
13970;DHT22;7057;49.984;8.404;2023-04-29T02:40:54;12.50;99.90
13970;DHT22;7057;49.984;8.404;2023-04-29T02:43:21;12.50;99.90
13970;DHT22;7057;49.984;8.404;2023-04-29T02:45:50;12.50;99.90
13970;DHT22;7057;49.984;8.404;2023-04-29T02:48:17;12.50;99.90
13970;DHT22;7057;49.984;8.404;2023-04-29T02:50:45;12.50;99.90
13970;DHT22;7057;49.984;8.404;2023-04-29T02:53:12;12.50;99.90
13970;DHT22;7057;49.984;8.404;2023-04-29T02:55:39;12.50;99.90
13970;DHT22;7057;49.984;8.404;2023-04-29T02:58:06;12.50;99.90
13970;DHT22;7057;49.984;8.404;2023-04-29T03:00:33;12.50;99.90
13970;DHT22;7057;49.984;8.404;2023-04-29T03:03:02;12.50;99.90
13970;DHT22;7057;49.984;8.404;2023-04-29T03:05:30;12.60;99.90
13970;DHT22;7057;49.984;8.404;2023-04-29T03:07:57;12.60;99.90
13970;DHT22;7057;49.984;8.404;2023-04-29T03:10:25;12.60;99.90
13970;DHT22;7057;49.984;8.404;2023-04-29T03:12:52;12.60;99.90
13970;DHT22;7057;49.984;8.404;2023-04-29T03:15:19;12.50;99.90
13970;DHT22;7057;49.984;8.404;2023-04-29T03:17:46;12.50;99.90
13970;DHT22;7057;49.984;8.404;2023-04-29T03:20:15;12.60;99.90
13970;DHT22;7057;49.984;8.404;2023-04-29T03:22:42;12.60;99.90
13970;DHT22;7057;49.984;8.404;2023-04-29T03:25:09;12.60;99.90
13970;DHT22;7057;49.984;8.404;2023-04-29T03:27:37;12.60;99.90
13970;DHT22;7057;49.984;8.404;2023-04-29T03:30:05;12.60;99.90
13970;DHT22;7057;49.984;8.404;2023-04-29T03:32:32;12.50;99.90
13970;DHT22;7057;49.984;8.404;2023-04-29T03:35:00;12.50;99.90
13970;DHT22;7057;49.984;8.404;2023-04-29T03:37:28;12.50;99.90
13970;DHT22;7057;49.984;8.404;2023-04-29T03:39:55;12.60;99.90
13970;DHT22;7057;49.984;8.404;2023-04-29T03:42:22;12.60;99.90
13970;DHT22;7057;49.984;8.404;2023-04-29T03:44:50;12.70;99.90
13970;DHT22;7057;49.984;8.404;2023-04-29T03:47:17;12.70;99.90
13970;DHT22;7057;49.984;8.404;2023-04-29T03:49:44;12.70;99.90
13970;DHT22;7057;49.984;8.404;2023-04-29T03:52:11;12.80;99.90
13970;DHT22;7057;49.984;8.404;2023-04-29T03:54:40;12.80;99.90
13970;DHT22;7057;49.984;8.404;2023-04-29T03:57:07;12.80;99.90
13970;DHT22;7057;49.984;8.404;2023-04-29T03:59:34;12.80;99.90
13970;DHT22;7057;49.984;8.404;2023-04-29T04:02:02;12.80;99.90
13970;DHT22;7057;49.984;8.404;2023-04-29T04:04:29;12.80;99.90
13970;DHT22;7057;49.984;8.404;2023-04-29T04:06:56;12.70;99.90
13970;DHT22;7057;49.984;8.404;2023-04-29T04:09:23;12.80;99.90
13970;DHT22;7057;49.984;8.404;2023-04-29T04:11:52;12.80;99.90
13970;DHT22;7057;49.984;8.404;2023-04-29T04:14:19;12.80;99.90
13970;DHT22;7057;49.984;8.404;2023-04-29T04:16:46;12.80;99.90
13970;DHT22;7057;49.984;8.404;2023-04-29T04:19:15;12.80;99.90
13970;DHT22;7057;49.984;8.404;2023-04-29T04:21:42;12.80;99.90
13970;DHT22;7057;49.984;8.404;2023-04-29T04:24:10;12.80;99.90
13970;DHT22;7057;49.984;8.404;2023-04-29T04:26:37;12.90;99.90
13970;DHT22;7057;49.984;8.404;2023-04-29T04:29:05;12.90;99.90
13970;DHT22;7057;49.984;8.404;2023-04-29T04:31:32;13.00;99.90
13970;DHT22;7057;49.984;8.404;2023-04-29T04:34:01;13.00;99.90
13970;DHT22;7057;49.984;8.404;2023-04-29T04:36:28;13.10;99.90
13970;DHT22;7057;49.984;8.404;2023-04-29T04:38:55;13.10;99.90
13970;DHT22;7057;49.984;8.404;2023-04-29T04:41:23;13.20;99.90
13970;DHT22;7057;49.984;8.404;2023-04-29T04:43:50;13.20;99.90
13970;DHT22;7057;49.984;8.404;2023-04-29T04:46:19;13.20;99.90
13970;DHT22;7057;49.984;8.404;2023-04-29T04:48:46;13.20;99.90
13970;DHT22;7057;49.984;8.404;2023-04-29T04:51:13;13.30;99.90
13970;DHT22;7057;49.984;8.404;2023-04-29T04:53:41;13.30;99.90
13970;DHT22;7057;49.984;8.404;2023-04-29T04:56:08;12.50;99.90
13970;DHT22;7057;49.984;8.404;2023-04-29T04:58:35;13.30;99.90
13970;DHT22;7057;49.984;8.404;2023-04-29T05:01:02;13.20;99.90
13970;DHT22;7057;49.984;8.404;2023-04-29T05:03:30;13.10;99.90
13970;DHT22;7057;49.984;8.404;2023-04-29T05:05:59;13.10;99.90
13970;DHT22;7057;49.984;8.404;2023-04-29T05:08:26;13.00;99.90
13970;DHT22;7057;49.984;8.404;2023-04-29T05:10:53;12.90;99.90
13970;DHT22;7057;49.984;8.404;2023-04-29T05:13:21;12.90;99.90
13970;DHT22;7057;49.984;8.404;2023-04-29T05:15:48;12.80;99.90
13970;DHT22;7057;49.984;8.404;2023-04-29T05:18:15;12.80;99.90
13970;DHT22;7057;49.984;8.404;2023-04-29T05:20:44;12.90;99.90
13970;DHT22;7057;49.984;8.404;2023-04-29T05:23:11;13.00;99.90
13970;DHT22;7057;49.984;8.404;2023-04-29T05:25:38;13.00;99.90
13970;DHT22;7057;49.984;8.404;2023-04-29T05:28:06;13.10;99.90
13970;DHT22;7057;49.984;8.404;2023-04-29T05:30:33;13.10;99.90
13970;DHT22;7057;49.984;8.404;2023-04-29T05:33:00;13.20;99.90
13970;DHT22;7057;49.984;8.404;2023-04-29T05:35:28;13.20;99.90
13970;DHT22;7057;49.984;8.404;2023-04-29T05:37:57;13.40;99.90
13970;DHT22;7057;49.984;8.404;2023-04-29T05:40:24;13.40;99.90
13970;DHT22;7057;49.984;8.404;2023-04-29T05:42:52;13.40;99.90
13970;DHT22;7057;49.984;8.404;2023-04-29T05:45:19;13.40;99.90
13970;DHT22;7057;49.984;8.404;2023-04-29T05:47:46;13.50;99.90
13970;DHT22;7057;49.984;8.404;2023-04-29T05:50:13;13.50;99.90
13970;DHT22;7057;49.984;8.404;2023-04-29T05:52:40;13.60;99.90
13970;DHT22;7057;49.984;8.404;2023-04-29T05:55:09;13.70;99.90
13970;DHT22;7057;49.984;8.404;2023-04-29T05:57:36;13.70;99.90
13970;DHT22;7057;49.984;8.404;2023-04-29T06:00:04;13.80;99.90
13970;DHT22;7057;49.984;8.404;2023-04-29T06:02:31;13.80;99.90
13970;DHT22;7057;49.984;8.404;2023-04-29T06:04:59;13.90;99.90
13970;DHT22;7057;49.984;8.404;2023-04-29T06:07:26;14.00;99.90
13970;DHT22;7057;49.984;8.404;2023-04-29T06:09:54;14.00;99.90
13970;DHT22;7057;49.984;8.404;2023-04-29T06:12:23;14.00;99.90
13970;DHT22;7057;49.984;8.404;2023-04-29T06:14:50;14.10;99.90
13970;DHT22;7057;49.984;8.404;2023-04-29T06:17:17;14.20;99.90
13970;DHT22;7057;49.984;8.404;2023-04-29T06:19:45;14.20;99.90
13970;DHT22;7057;49.984;8.404;2023-04-29T06:22:12;14.30;99.90
13970;DHT22;7057;49.984;8.404;2023-04-29T06:24:39;14.30;99.90
13970;DHT22;7057;49.984;8.404;2023-04-29T06:27:06;14.30;99.90
13970;DHT22;7057;49.984;8.404;2023-04-29T06:29:34;14.30;99.90
13970;DHT22;7057;49.984;8.404;2023-04-29T06:32:02;14.40;99.90
13970;DHT22;7057;49.984;8.404;2023-04-29T06:34:29;14.50;99.90
13970;DHT22;7057;49.984;8.404;2023-04-29T06:36:57;14.50;99.90
13970;DHT22;7057;49.984;8.404;2023-04-29T06:39:24;14.50;99.90
13970;DHT22;7057;49.984;8.404;2023-04-29T06:41:51;14.40;99.90
13970;DHT22;7057;49.984;8.404;2023-04-29T06:44:18;14.40;99.90
13970;DHT22;7057;49.984;8.404;2023-04-29T06:46:46;14.40;99.90
13970;DHT22;7057;49.984;8.404;2023-04-29T06:49:14;14.50;99.90
13970;DHT22;7057;49.984;8.404;2023-04-29T06:51:41;14.50;99.90
13970;DHT22;7057;49.984;8.404;2023-04-29T06:54:08;14.50;99.90
13970;DHT22;7057;49.984;8.404;2023-04-29T06:56:35;14.50;99.90
13970;DHT22;7057;49.984;8.404;2023-04-29T06:59:02;14.60;99.90
13970;DHT22;7057;49.984;8.404;2023-04-29T07:01:30;14.60;99.90
13970;DHT22;7057;49.984;8.404;2023-04-29T07:03:58;14.70;99.90
13970;DHT22;7057;49.984;8.404;2023-04-29T07:06:25;14.80;99.90
13970;DHT22;7057;49.984;8.404;2023-04-29T07:08:53;14.80;99.90
13970;DHT22;7057;49.984;8.404;2023-04-29T07:11:20;14.90;99.90
13970;DHT22;7057;49.984;8.404;2023-04-29T07:13:49;14.90;99.90
13970;DHT22;7057;49.984;8.404;2023-04-29T07:16:18;15.00;99.90
13970;DHT22;7057;49.984;8.404;2023-04-29T07:18:47;15.10;99.90
13970;DHT22;7057;49.984;8.404;2023-04-29T07:21:15;15.10;99.90
13970;DHT22;7057;49.984;8.404;2023-04-29T07:23:42;15.00;99.90
13970;DHT22;7057;49.984;8.404;2023-04-29T07:26:10;14.90;99.90
13970;DHT22;7057;49.984;8.404;2023-04-29T07:28:38;14.80;99.90
13970;DHT22;7057;49.984;8.404;2023-04-29T07:31:05;14.70;99.90
13970;DHT22;7057;49.984;8.404;2023-04-29T07:33:33;14.70;99.90
13970;DHT22;7057;49.984;8.404;2023-04-29T07:36:00;14.60;99.90
13970;DHT22;7057;49.984;8.404;2023-04-29T07:38:29;14.60;99.90
13970;DHT22;7057;49.984;8.404;2023-04-29T07:40:57;14.60;99.90
13970;DHT22;7057;49.984;8.404;2023-04-29T07:43:24;14.70;99.90
13970;DHT22;7057;49.984;8.404;2023-04-29T07:45:51;14.70;99.90
13970;DHT22;7057;49.984;8.404;2023-04-29T07:48:18;14.70;99.90
13970;DHT22;7057;49.984;8.404;2023-04-29T07:50:47;14.60;99.90
13970;DHT22;7057;49.984;8.404;2023-04-29T07:53:14;14.70;99.90
13970;DHT22;7057;49.984;8.404;2023-04-29T07:55:43;14.70;99.90
13970;DHT22;7057;49.984;8.404;2023-04-29T07:58:10;14.70;99.90
13970;DHT22;7057;49.984;8.404;2023-04-29T08:00:37;14.70;99.90
13970;DHT22;7057;49.984;8.404;2023-04-29T08:03:05;14.70;99.90
13970;DHT22;7057;49.984;8.404;2023-04-29T08:05:32;14.70;99.90
13970;DHT22;7057;49.984;8.404;2023-04-29T08:07:59;14.60;99.90
13970;DHT22;7057;49.984;8.404;2023-04-29T08:10:26;14.50;99.90
13970;DHT22;7057;49.984;8.404;2023-04-29T08:12:55;14.50;99.90
13970;DHT22;7057;49.984;8.404;2023-04-29T08:15:22;14.50;99.90
13970;DHT22;7057;49.984;8.404;2023-04-29T08:17:50;14.40;99.90
13970;DHT22;7057;49.984;8.404;2023-04-29T08:20:17;14.40;99.90
13970;DHT22;7057;49.984;8.404;2023-04-29T08:22:44;14.30;99.90
13970;DHT22;7057;49.984;8.404;2023-04-29T08:25:12;14.40;99.90
13970;DHT22;7057;49.984;8.404;2023-04-29T08:27:39;14.40;99.90
13970;DHT22;7057;49.984;8.404;2023-04-29T08:30:10;14.30;99.90
13970;DHT22;7057;49.984;8.404;2023-04-29T08:32:37;14.30;99.90
13970;DHT22;7057;49.984;8.404;2023-04-29T08:35:05;14.20;99.90
13970;DHT22;7057;49.984;8.404;2023-04-29T08:37:33;14.10;99.90
13970;DHT22;7057;49.984;8.404;2023-04-29T08:40:00;14.00;99.90
13970;DHT22;7057;49.984;8.404;2023-04-29T08:42:32;14.00;99.90
13970;DHT22;7057;49.984;8.404;2023-04-29T08:45:01;14.00;99.90
13970;DHT22;7057;49.984;8.404;2023-04-29T08:47:31;14.00;99.90
13970;DHT22;7057;49.984;8.404;2023-04-29T08:50:01;14.20;99.90
13970;DHT22;7057;49.984;8.404;2023-04-29T08:52:29;14.30;99.90
13970;DHT22;7057;49.984;8.404;2023-04-29T08:54:57;14.40;99.90
13970;DHT22;7057;49.984;8.404;2023-04-29T08:57:25;14.60;99.90
13970;DHT22;7057;49.984;8.404;2023-04-29T08:59:53;14.60;99.90
13970;DHT22;7057;49.984;8.404;2023-04-29T09:02:22;14.60;99.90
13970;DHT22;7057;49.984;8.404;2023-04-29T09:04:58;14.50;99.90
13970;DHT22;7057;49.984;8.404;2023-04-29T09:07:27;14.50;99.90
13970;DHT22;7057;49.984;8.404;2023-04-29T09:09:55;14.40;99.90
13970;DHT22;7057;49.984;8.404;2023-04-29T09:12:22;14.50;99.90
13970;DHT22;7057;49.984;8.404;2023-04-29T09:14:49;14.50;99.90
13970;DHT22;7057;49.984;8.404;2023-04-29T09:17:16;14.60;99.90
13970;DHT22;7057;49.984;8.404;2023-04-29T09:19:44;14.60;99.90
13970;DHT22;7057;49.984;8.404;2023-04-29T09:22:12;14.60;99.90
13970;DHT22;7057;49.984;8.404;2023-04-29T09:24:39;14.60;99.90
13970;DHT22;7057;49.984;8.404;2023-04-29T09:27:08;14.60;99.90
13970;DHT22;7057;49.984;8.404;2023-04-29T09:29:36;14.50;99.90
13970;DHT22;7057;49.984;8.404;2023-04-29T09:32:18;14.60;99.90
13970;DHT22;7057;49.984;8.404;2023-04-29T09:34:46;14.50;99.90
13970;DHT22;7057;49.984;8.404;2023-04-29T09:37:24;14.60;99.90
13970;DHT22;7057;49.984;8.404;2023-04-29T09:39:53;14.60;99.90
13970;DHT22;7057;49.984;8.404;2023-04-29T09:42:20;14.60;99.90
13970;DHT22;7057;49.984;8.404;2023-04-29T09:44:47;14.70;99.90
13970;DHT22;7057;49.984;8.404;2023-04-29T09:47:14;14.70;99.90
13970;DHT22;7057;49.984;8.404;2023-04-29T09:49:43;14.70;99.90
13970;DHT22;7057;49.984;8.404;2023-04-29T09:52:12;14.70;99.90
13970;DHT22;7057;49.984;8.404;2023-04-29T09:54:42;14.70;99.90
13970;DHT22;7057;49.984;8.404;2023-04-29T09:57:10;14.70;99.90
13970;DHT22;7057;49.984;8.404;2023-04-29T09:59:39;14.90;99.90
13970;DHT22;7057;49.984;8.404;2023-04-29T10:02:12;14.90;99.90
13970;DHT22;7057;49.984;8.404;2023-04-29T10:04:41;15.00;99.90
13970;DHT22;7057;49.984;8.404;2023-04-29T10:07:13;15.10;99.90
13970;DHT22;7057;49.984;8.404;2023-04-29T10:09:43;15.10;99.90
13970;DHT22;7057;49.984;8.404;2023-04-29T10:12:15;15.10;99.90
13970;DHT22;7057;49.984;8.404;2023-04-29T10:14:44;15.20;99.90
13970;DHT22;7057;49.984;8.404;2023-04-29T10:17:17;15.30;99.90
13970;DHT22;7057;49.984;8.404;2023-04-29T10:19:52;15.30;99.90
13970;DHT22;7057;49.984;8.404;2023-04-29T10:22:29;15.30;99.90
13970;DHT22;7057;49.984;8.404;2023-04-29T10:25:01;15.30;99.90
13970;DHT22;7057;49.984;8.404;2023-04-29T10:27:33;15.30;99.90
13970;DHT22;7057;49.984;8.404;2023-04-29T10:30:01;15.20;99.90
13970;DHT22;7057;49.984;8.404;2023-04-29T10:32:30;15.20;99.90
13970;DHT22;7057;49.984;8.404;2023-04-29T10:34:58;15.20;99.90
13970;DHT22;7057;49.984;8.404;2023-04-29T10:37:27;15.10;99.90
13970;DHT22;7057;49.984;8.404;2023-04-29T10:40:04;15.00;99.90
13970;DHT22;7057;49.984;8.404;2023-04-29T10:42:41;14.90;99.90
13970;DHT22;7057;49.984;8.404;2023-04-29T10:45:19;14.80;99.90
13970;DHT22;7057;49.984;8.404;2023-04-29T10:48:09;14.70;99.90
13970;DHT22;7057;49.984;8.404;2023-04-29T10:51:01;14.60;99.90
13970;DHT22;7057;49.984;8.404;2023-04-29T10:53:29;14.60;99.90
13970;DHT22;7057;49.984;8.404;2023-04-29T10:56:02;14.60;99.90
13970;DHT22;7057;49.984;8.404;2023-04-29T10:58:34;14.60;99.90
13970;DHT22;7057;49.984;8.404;2023-04-29T11:01:01;14.60;99.90
13970;DHT22;7057;49.984;8.404;2023-04-29T11:03:50;14.70;99.90
13970;DHT22;7057;49.984;8.404;2023-04-29T11:06:22;14.90;99.90
13970;DHT22;7057;49.984;8.404;2023-04-29T11:08:59;15.00;99.90
13970;DHT22;7057;49.984;8.404;2023-04-29T11:14:24;15.40;99.90
13970;DHT22;7057;49.984;8.404;2023-04-29T11:16:53;15.60;99.90
13970;DHT22;7057;49.984;8.404;2023-04-29T11:19:24;15.80;99.90
13970;DHT22;7057;49.984;8.404;2023-04-29T11:22:07;15.90;99.90
13970;DHT22;7057;49.984;8.404;2023-04-29T11:24:35;16.00;99.90
13970;DHT22;7057;49.984;8.404;2023-04-29T11:27:04;16.20;99.90
13970;DHT22;7057;49.984;8.404;2023-04-29T11:29:32;16.30;99.90
13970;DHT22;7057;49.984;8.404;2023-04-29T11:31:59;16.40;99.90
13970;DHT22;7057;49.984;8.404;2023-04-29T11:34:27;16.50;99.90
13970;DHT22;7057;49.984;8.404;2023-04-29T11:36:54;16.70;99.90
13970;DHT22;7057;49.984;8.404;2023-04-29T11:39:22;16.80;99.90
13970;DHT22;7057;49.984;8.404;2023-04-29T11:41:49;16.80;99.90
13970;DHT22;7057;49.984;8.404;2023-04-29T11:44:21;16.80;99.90
13970;DHT22;7057;49.984;8.404;2023-04-29T11:46:48;16.90;99.90
13970;DHT22;7057;49.984;8.404;2023-04-29T11:49:16;16.90;99.90
13970;DHT22;7057;49.984;8.404;2023-04-29T11:51:43;17.10;99.90
13970;DHT22;7057;49.984;8.404;2023-04-29T11:54:10;17.40;99.90
13970;DHT22;7057;49.984;8.404;2023-04-29T11:56:37;17.60;99.90
13970;DHT22;7057;49.984;8.404;2023-04-29T11:59:05;17.90;99.90
13970;DHT22;7057;49.984;8.404;2023-04-29T12:01:34;18.20;99.90
13970;DHT22;7057;49.984;8.404;2023-04-29T12:04:04;18.20;99.90
13970;DHT22;7057;49.984;8.404;2023-04-29T12:06:32;18.10;99.90
13970;DHT22;7057;49.984;8.404;2023-04-29T12:08:59;18.00;99.90
13970;DHT22;7057;49.984;8.404;2023-04-29T12:11:29;18.00;99.90
13970;DHT22;7057;49.984;8.404;2023-04-29T12:13:56;18.10;99.90
13970;DHT22;7057;49.984;8.404;2023-04-29T12:16:27;18.20;99.90
13970;DHT22;7057;49.984;8.404;2023-04-29T12:18:56;18.20;99.90
13970;DHT22;7057;49.984;8.404;2023-04-29T12:21:24;18.10;99.90
13970;DHT22;7057;49.984;8.404;2023-04-29T12:23:52;18.00;99.90
13970;DHT22;7057;49.984;8.404;2023-04-29T12:26:20;17.90;99.90
13970;DHT22;7057;49.984;8.404;2023-04-29T12:28:48;17.80;99.90
13970;DHT22;7057;49.984;8.404;2023-04-29T12:31:15;17.80;99.90
13970;DHT22;7057;49.984;8.404;2023-04-29T12:33:43;17.80;99.90
13970;DHT22;7057;49.984;8.404;2023-04-29T12:36:16;17.70;99.90
13970;DHT22;7057;49.984;8.404;2023-04-29T12:38:46;17.60;99.90
13970;DHT22;7057;49.984;8.404;2023-04-29T12:41:13;17.70;99.90
13970;DHT22;7057;49.984;8.404;2023-04-29T12:43:42;17.80;99.90
13970;DHT22;7057;49.984;8.404;2023-04-29T12:46:10;17.80;99.90
13970;DHT22;7057;49.984;8.404;2023-04-29T12:48:40;17.70;99.90
13970;DHT22;7057;49.984;8.404;2023-04-29T12:51:09;17.40;99.90
13970;DHT22;7057;49.984;8.404;2023-04-29T12:53:37;17.30;99.90
13970;DHT22;7057;49.984;8.404;2023-04-29T12:56:05;17.10;99.90
13970;DHT22;7057;49.984;8.404;2023-04-29T12:58:32;16.90;99.90
13970;DHT22;7057;49.984;8.404;2023-04-29T13:01:00;16.80;99.90
13970;DHT22;7057;49.984;8.404;2023-04-29T13:03:27;16.80;99.90
13970;DHT22;7057;49.984;8.404;2023-04-29T13:05:54;16.90;99.90
13970;DHT22;7057;49.984;8.404;2023-04-29T13:08:22;17.00;99.90
13970;DHT22;7057;49.984;8.404;2023-04-29T13:10:50;17.00;99.90
13970;DHT22;7057;49.984;8.404;2023-04-29T13:13:18;17.20;99.90
13970;DHT22;7057;49.984;8.404;2023-04-29T13:15:46;17.30;99.90
13970;DHT22;7057;49.984;8.404;2023-04-29T13:18:14;17.50;99.90
13970;DHT22;7057;49.984;8.404;2023-04-29T13:20:41;17.60;99.90
13970;DHT22;7057;49.984;8.404;2023-04-29T13:23:08;17.70;99.90
13970;DHT22;7057;49.984;8.404;2023-04-29T13:25:37;17.60;99.90
13970;DHT22;7057;49.984;8.404;2023-04-29T13:28:05;17.60;99.90
13970;DHT22;7057;49.984;8.404;2023-04-29T13:30:33;17.60;99.90
13970;DHT22;7057;49.984;8.404;2023-04-29T13:33:00;17.70;99.90
13970;DHT22;7057;49.984;8.404;2023-04-29T13:35:27;17.90;99.90
13970;DHT22;7057;49.984;8.404;2023-04-29T13:37:54;17.90;99.90
13970;DHT22;7057;49.984;8.404;2023-04-29T13:40:22;18.00;99.90
13970;DHT22;7057;49.984;8.404;2023-04-29T13:42:49;17.90;99.90
13970;DHT22;7057;49.984;8.404;2023-04-29T13:45:17;17.90;99.90
13970;DHT22;7057;49.984;8.404;2023-04-29T13:47:44;17.80;99.90
13970;DHT22;7057;49.984;8.404;2023-04-29T13:50:12;17.60;99.90
13970;DHT22;7057;49.984;8.404;2023-04-29T13:52:39;17.50;99.90
13970;DHT22;7057;49.984;8.404;2023-04-29T13:55:07;17.40;99.90
13970;DHT22;7057;49.984;8.404;2023-04-29T13:57:34;17.30;99.90
13970;DHT22;7057;49.984;8.404;2023-04-29T14:00:02;17.20;99.90
13970;DHT22;7057;49.984;8.404;2023-04-29T14:02:30;17.20;99.90
13970;DHT22;7057;49.984;8.404;2023-04-29T14:04:58;17.10;99.90
13970;DHT22;7057;49.984;8.404;2023-04-29T14:07:25;17.00;99.90
13970;DHT22;7057;49.984;8.404;2023-04-29T14:09:52;16.90;99.90
13970;DHT22;7057;49.984;8.404;2023-04-29T14:12:19;16.80;99.90
13970;DHT22;7057;49.984;8.404;2023-04-29T14:14:46;16.70;99.90
13970;DHT22;7057;49.984;8.404;2023-04-29T14:17:13;16.50;99.90
13970;DHT22;7057;49.984;8.404;2023-04-29T14:19:42;16.50;99.90
13970;DHT22;7057;49.984;8.404;2023-04-29T14:22:09;16.40;99.90
13970;DHT22;7057;49.984;8.404;2023-04-29T14:24:36;16.30;99.90
13970;DHT22;7057;49.984;8.404;2023-04-29T14:27:04;16.30;99.90
13970;DHT22;7057;49.984;8.404;2023-04-29T14:29:31;16.40;99.90
13970;DHT22;7057;49.984;8.404;2023-04-29T14:31:58;16.40;99.90
13970;DHT22;7057;49.984;8.404;2023-04-29T14:34:25;16.40;99.90
13970;DHT22;7057;49.984;8.404;2023-04-29T14:36:54;16.40;99.90
13970;DHT22;7057;49.984;8.404;2023-04-29T14:39:24;16.40;99.90
13970;DHT22;7057;49.984;8.404;2023-04-29T14:41:51;16.40;99.90
13970;DHT22;7057;49.984;8.404;2023-04-29T14:44:18;16.40;99.90
13970;DHT22;7057;49.984;8.404;2023-04-29T14:46:46;16.50;99.90
13970;DHT22;7057;49.984;8.404;2023-04-29T14:49:13;16.50;99.90
13970;DHT22;7057;49.984;8.404;2023-04-29T14:51:40;16.60;99.90
13970;DHT22;7057;49.984;8.404;2023-04-29T14:54:09;16.60;99.90
13970;DHT22;7057;49.984;8.404;2023-04-29T14:56:37;16.70;99.90
13970;DHT22;7057;49.984;8.404;2023-04-29T14:59:04;16.80;99.90
13970;DHT22;7057;49.984;8.404;2023-04-29T15:01:33;16.90;99.90
13970;DHT22;7057;49.984;8.404;2023-04-29T15:04:01;16.90;99.90
13970;DHT22;7057;49.984;8.404;2023-04-29T15:06:30;16.90;99.90
13970;DHT22;7057;49.984;8.404;2023-04-29T15:08:57;17.00;99.90
13970;DHT22;7057;49.984;8.404;2023-04-29T15:11:26;17.00;99.90
13970;DHT22;7057;49.984;8.404;2023-04-29T15:13:53;17.00;99.90
13970;DHT22;7057;49.984;8.404;2023-04-29T15:16:20;16.90;99.90
13970;DHT22;7057;49.984;8.404;2023-04-29T15:18:47;16.80;99.90
13970;DHT22;7057;49.984;8.404;2023-04-29T15:21:15;16.80;99.90
13970;DHT22;7057;49.984;8.404;2023-04-29T15:23:42;16.90;99.90
13970;DHT22;7057;49.984;8.404;2023-04-29T15:26:09;16.90;99.90
13970;DHT22;7057;49.984;8.404;2023-04-29T15:28:38;17.00;99.90
13970;DHT22;7057;49.984;8.404;2023-04-29T15:31:05;16.90;99.90
13970;DHT22;7057;49.984;8.404;2023-04-29T15:33:32;16.80;99.90
13970;DHT22;7057;49.984;8.404;2023-04-29T15:36:01;16.70;99.90
13970;DHT22;7057;49.984;8.404;2023-04-29T15:38:28;16.60;99.90
13970;DHT22;7057;49.984;8.404;2023-04-29T15:40:57;16.50;99.90
13970;DHT22;7057;49.984;8.404;2023-04-29T15:43:26;16.50;99.90
13970;DHT22;7057;49.984;8.404;2023-04-29T15:45:54;16.40;99.90
13970;DHT22;7057;49.984;8.404;2023-04-29T15:48:21;16.50;99.90
13970;DHT22;7057;49.984;8.404;2023-04-29T15:50:49;16.40;99.90
13970;DHT22;7057;49.984;8.404;2023-04-29T15:53:18;16.30;99.90
13970;DHT22;7057;49.984;8.404;2023-04-29T15:55:45;16.30;99.90
13970;DHT22;7057;49.984;8.404;2023-04-29T15:58:12;16.20;99.90